Vano — SBNM — position and weather

sailwx.info

Track history (hours):
 
Tides and Currents Weather Stations Pressure Air Temp Water Temp Dewpoint Dewpoint Depression Visibility Wind Speed Wind Dir Waves Ship Positions

Vano

Last reported at 2016-Jul-23 16:33 UTC. Time now 2016-Jul-23 17:03 UTC.
Position N 59°20' E 018°04'.

Length 38 m; draft 1.8 m.

Type: Passenger vessel. MMSI: 265520400.

Date/timePositionNaut miles runAvg speedWind from/ knotsBaromVisibWave heightAir tempDewpointWater temp
2016-Jul-23 16:33N 59°20' E 018°04'0 0.0
2016-Jul-23 15:15N 59°20' E 018°04'0 0.0
2016-Jul-23 14:33N 59°20' E 018°04'0 0.0
2016-Jul-23 13:34N 59°20' E 018°04'0 0.1
2016-Jul-23 06:33N 59°19' E 018°05'0 0.2
2016-Jul-23 04:33N 59°20' E 018°05'0 0.0
2016-Jul-23 03:32N 59°20' E 018°05'0 0.0
2016-Jul-23 02:33N 59°20' E 018°05'0 0.0
2016-Jul-23 01:33N 59°20' E 018°05'0 0.0
2016-Jul-23 00:33N 59°20' E 018°05'0 0.0
2016-Jul-22 23:33N 59°20' E 018°05'0 0.0
2016-Jul-22 22:33N 59°20' E 018°05'0 0.0
2016-Jul-22 21:30N 59°20' E 018°05'0 0.0
2016-Jul-22 20:32N 59°20' E 018°05'0 0.0
2016-Jul-22 19:33N 59°20' E 018°05'0 0.0
2016-Jul-22 18:33N 59°20' E 018°05'0 0.0
2016-Jul-22 17:33N 59°20' E 018°05'0 0.0
2016-Jul-22 09:33N 59°19' E 018°05'0 0.3
2016-Jul-22 08:33N 59°20' E 018°05'1 0.1
2016-Jul-21 15:11N 59°19' E 018°07'1 2.0
2016-Jul-21 14:33N 59°20' E 018°05'0 0.0
2016-Jul-21 06:33N 59°20' E 018°05'0 0.1
2016-Jul-21 05:33N 59°20' E 018°05'0 0.0
2016-Jul-21 04:33N 59°20' E 018°05'0 0.0
2016-Jul-21 03:33N 59°20' E 018°05'0 0.0
2016-Jul-21 02:33N 59°20' E 018°05'0 0.0
2016-Jul-21 01:34N 59°20' E 018°05'0 0.0
2016-Jul-21 00:33N 59°20' E 018°05'0 0.0
2016-Jul-20 23:33N 59°20' E 018°05'0 0.0
2016-Jul-20 22:25N 59°20' E 018°05'0 0.0
2016-Jul-20 21:31N 59°20' E 018°05'0 0.0
2016-Jul-20 20:24N 59°20' E 018°05'0 0.1
2016-Jul-20 14:33N 59°19' E 018°05'0 0.4
2016-Jul-20 13:32N 59°20' E 018°04'0 0.0
2016-Jul-20 12:33N 59°20' E 018°04'0 0.0
2016-Jul-20 11:33N 59°20' E 018°04'0 0.0
2016-Jul-20 10:33N 59°20' E 018°04'0 0.0
2016-Jul-20 09:34N 59°20' E 018°04'0 0.0
2016-Jul-20 08:33N 59°20' E 018°04'0 0.0
2016-Jul-19 13:33N 59°19' E 018°05'3 2.5
2016-Jul-19 12:30N 59°19' E 018°10'2 0.4
2016-Jul-19 08:10N 59°20' E 018°12'4 6.6
2016-Jul-19 07:33N 59°20' E 018°05'4 0.2
2016-Jul-18 14:23N 59°20' E 018°12'4 4.4
2016-Jul-18 13:30N 59°20' E 018°05'4 0.6
2016-Jul-18 06:23N 59°20' E 018°12'4 4.9
2016-Jul-18 05:33N 59°20' E 018°04'0 0.0
2016-Jul-18 04:33N 59°20' E 018°04'0 0.0
2016-Jul-18 03:33N 59°20' E 018°04'0 0.0
2016-Jul-18 02:33N 59°20' E 018°04'0 0.0
2016-Jul-18 01:33N 59°20' E 018°04'0 0.0
2016-Jul-18 00:34N 59°20' E 018°04'0 0.0
2016-Jul-17 23:33N 59°20' E 018°04'0 0.0
2016-Jul-17 22:33N 59°20' E 018°04'0 0.0
2016-Jul-17 21:33N 59°20' E 018°04'0 0.0
2016-Jul-17 20:33N 59°20' E 018°04'0 0.0
2016-Jul-17 19:34N 59°20' E 018°04'0 0.0
2016-Jul-17 18:33N 59°20' E 018°04'3 0.7
2016-Jul-17 13:34N 59°20' E 018°11'1 1.0
2016-Jul-17 12:31N 59°19' E 018°10'2 0.4
2016-Jul-17 06:33N 59°19' E 018°05'0 0.2
2016-Jul-17 04:33N 59°20' E 018°04'0 0.0
2016-Jul-17 03:33N 59°20' E 018°04'0 0.0
2016-Jul-17 02:33N 59°20' E 018°04'0 0.0
2016-Jul-17 01:34N 59°20' E 018°04'0 0.0
2016-Jul-17 00:33N 59°20' E 018°04'0 0.0
2016-Jul-16 23:33N 59°20' E 018°04'0 0.0
2016-Jul-16 22:33N 59°20' E 018°04'0 0.0
2016-Jul-16 21:33N 59°20' E 018°04'0 0.0
2016-Jul-16 20:34N 59°20' E 018°04'0 0.0
2016-Jul-16 19:34N 59°20' E 018°04'0 0.0
2016-Jul-16 18:34N 59°20' E 018°04'0 0.0
2016-Jul-16 17:34N 59°20' E 018°04'0 0.0
2016-Jul-16 16:33N 59°20' E 018°04'0 0.0
2016-Jul-16 15:33N 59°20' E 018°04'0 0.0
2016-Jul-16 14:33N 59°20' E 018°04'0 0.0
2016-Jul-16 13:34N 59°20' E 018°04'3 2.9
2016-Jul-16 12:31N 59°19' E 018°10'3 0.5
2016-Jul-16 06:33N 59°19' E 018°05'0 0.2
2016-Jul-16 04:33N 59°20' E 018°04'0 0.0
2016-Jul-16 03:33N 59°20' E 018°04'0 0.0
2016-Jul-16 02:33N 59°20' E 018°04'0 0.0
2016-Jul-16 01:33N 59°20' E 018°04'0 0.0
2016-Jul-16 00:33N 59°20' E 018°04'0 0.0
2016-Jul-15 23:33N 59°20' E 018°04'0 0.0
2016-Jul-15 22:33N 59°20' E 018°04'0 0.0
2016-Jul-15 21:33N 59°20' E 018°04'0 0.0
2016-Jul-15 20:33N 59°20' E 018°04'0 0.0
2016-Jul-15 19:33N 59°20' E 018°04'0 0.0
2016-Jul-15 18:33N 59°20' E 018°04'0 0.0
2016-Jul-15 17:33N 59°20' E 018°04'0 0.0
2016-Jul-15 09:33N 59°19' E 018°05'0 0.3
2016-Jul-15 08:33N 59°20' E 018°05'3 0.2
2016-Jul-14 15:27N 59°20' E 018°11'3 3.9
2016-Jul-14 14:33N 59°20' E 018°05'0 0.0
2016-Jul-14 06:33N 59°19' E 018°05'0 0.4
2016-Jul-14 05:33N 59°20' E 018°05'0 0.0
2016-Jul-14 04:33N 59°20' E 018°05'0 0.0
2016-Jul-14 03:30N 59°20' E 018°05'0 0.0
2016-Jul-14 02:33N 59°20' E 018°05'0 0.0
2016-Jul-14 01:28N 59°20' E 018°05'0 0.0
2016-Jul-14 00:33N 59°20' E 018°05'0 0.0
2016-Jul-13 23:34N 59°20' E 018°05'0 0.0
2016-Jul-13 22:33N 59°20' E 018°05'0 0.0
2016-Jul-13 21:33N 59°20' E 018°05'0 0.0
2016-Jul-13 20:33N 59°20' E 018°05'  
Track history (hours):
 
Tides and Currents Weather Stations Pressure Air Temp Water Temp Dewpoint Dewpoint Depression Visibility Wind Speed Wind Dir Waves Ship Positions

Vano

Last reported at 2016-Jul-23 16:33 UTC. Time now 2016-Jul-23 17:03 UTC.
Position N 59°20' E 018°04'.

Length 38 m; draft 1.8 m.

Type: Passenger vessel. MMSI: 265520400.

Date/timePositionNaut miles runAvg speedWind from/ knotsBaromVisibWave heightAir tempDewpointWater temp
2016-Jul-23 16:33N 59°20' E 018°04'0 0.0
2016-Jul-23 15:15N 59°20' E 018°04'0 0.0
2016-Jul-23 14:33N 59°20' E 018°04'0 0.0
2016-Jul-23 13:34N 59°20' E 018°04'0 0.1
2016-Jul-23 06:33N 59°19' E 018°05'0 0.2
2016-Jul-23 04:33N 59°20' E 018°05'0 0.0
2016-Jul-23 03:32N 59°20' E 018°05'0 0.0
2016-Jul-23 02:33N 59°20' E 018°05'0 0.0
2016-Jul-23 01:33N 59°20' E 018°05'0 0.0
2016-Jul-23 00:33N 59°20' E 018°05'0 0.0
2016-Jul-22 23:33N 59°20' E 018°05'0 0.0
2016-Jul-22 22:33N 59°20' E 018°05'0 0.0
2016-Jul-22 21:30N 59°20' E 018°05'0 0.0
2016-Jul-22 20:32N 59°20' E 018°05'0 0.0
2016-Jul-22 19:33N 59°20' E 018°05'0 0.0
2016-Jul-22 18:33N 59°20' E 018°05'0 0.0
2016-Jul-22 17:33N 59°20' E 018°05'0 0.0
2016-Jul-22 09:33N 59°19' E 018°05'0 0.3
2016-Jul-22 08:33N 59°20' E 018°05'1 0.1
2016-Jul-21 15:11N 59°19' E 018°07'1 2.0
2016-Jul-21 14:33N 59°20' E 018°05'0 0.0
2016-Jul-21 06:33N 59°20' E 018°05'0 0.1
2016-Jul-21 05:33N 59°20' E 018°05'0 0.0
2016-Jul-21 04:33N 59°20' E 018°05'0 0.0
2016-Jul-21 03:33N 59°20' E 018°05'0 0.0
2016-Jul-21 02:33N 59°20' E 018°05'0 0.0
2016-Jul-21 01:34N 59°20' E 018°05'0 0.0
2016-Jul-21 00:33N 59°20' E 018°05'0 0.0
2016-Jul-20 23:33N 59°20' E 018°05'0 0.0
2016-Jul-20 22:25N 59°20' E 018°05'0 0.0
2016-Jul-20 21:31N 59°20' E 018°05'0 0.0
2016-Jul-20 20:24N 59°20' E 018°05'0 0.1
2016-Jul-20 14:33N 59°19' E 018°05'0 0.4
2016-Jul-20 13:32N 59°20' E 018°04'0 0.0
2016-Jul-20 12:33N 59°20' E 018°04'0 0.0
2016-Jul-20 11:33N 59°20' E 018°04'0 0.0
2016-Jul-20 10:33N 59°20' E 018°04'0 0.0
2016-Jul-20 09:34N 59°20' E 018°04'0 0.0
2016-Jul-20 08:33N 59°20' E 018°04'0 0.0
2016-Jul-19 13:33N 59°19' E 018°05'3 2.5
2016-Jul-19 12:30N 59°19' E 018°10'2 0.4
2016-Jul-19 08:10N 59°20' E 018°12'4 6.6
2016-Jul-19 07:33N 59°20' E 018°05'4 0.2
2016-Jul-18 14:23N 59°20' E 018°12'4 4.4
2016-Jul-18 13:30N 59°20' E 018°05'4 0.6
2016-Jul-18 06:23N 59°20' E 018°12'4 4.9
2016-Jul-18 05:33N 59°20' E 018°04'0 0.0
2016-Jul-18 04:33N 59°20' E 018°04'0 0.0
2016-Jul-18 03:33N 59°20' E 018°04'0 0.0
2016-Jul-18 02:33N 59°20' E 018°04'0 0.0
2016-Jul-18 01:33N 59°20' E 018°04'0 0.0
2016-Jul-18 00:34N 59°20' E 018°04'0 0.0
2016-Jul-17 23:33N 59°20' E 018°04'0 0.0
2016-Jul-17 22:33N 59°20' E 018°04'0 0.0
2016-Jul-17 21:33N 59°20' E 018°04'0 0.0
2016-Jul-17 20:33N 59°20' E 018°04'0 0.0
2016-Jul-17 19:34N 59°20' E 018°04'0 0.0
2016-Jul-17 18:33N 59°20' E 018°04'3 0.7
2016-Jul-17 13:34N 59°20' E 018°11'1 1.0
2016-Jul-17 12:31N 59°19' E 018°10'2 0.4
2016-Jul-17 06:33N 59°19' E 018°05'0 0.2
2016-Jul-17 04:33N 59°20' E 018°04'0 0.0
2016-Jul-17 03:33N 59°20' E 018°04'0 0.0
2016-Jul-17 02:33N 59°20' E 018°04'0 0.0
2016-Jul-17 01:34N 59°20' E 018°04'0 0.0
2016-Jul-17 00:33N 59°20' E 018°04'0 0.0
2016-Jul-16 23:33N 59°20' E 018°04'0 0.0
2016-Jul-16 22:33N 59°20' E 018°04'0 0.0
2016-Jul-16 21:33N 59°20' E 018°04'0 0.0
2016-Jul-16 20:34N 59°20' E 018°04'0 0.0
2016-Jul-16 19:34N 59°20' E 018°04'0 0.0
2016-Jul-16 18:34N 59°20' E 018°04'0 0.0
2016-Jul-16 17:34N 59°20' E 018°04'0 0.0
2016-Jul-16 16:33N 59°20' E 018°04'0 0.0
2016-Jul-16 15:33N 59°20' E 018°04'0 0.0
2016-Jul-16 14:33N 59°20' E 018°04'0 0.0
2016-Jul-16 13:34N 59°20' E 018°04'3 2.9
2016-Jul-16 12:31N 59°19' E 018°10'3 0.5
2016-Jul-16 06:33N 59°19' E 018°05'0 0.2
2016-Jul-16 04:33N 59°20' E 018°04'0 0.0
2016-Jul-16 03:33N 59°20' E 018°04'0 0.0
2016-Jul-16 02:33N 59°20' E 018°04'0 0.0
2016-Jul-16 01:33N 59°20' E 018°04'0 0.0
2016-Jul-16 00:33N 59°20' E 018°04'0 0.0
2016-Jul-15 23:33N 59°20' E 018°04'0 0.0
2016-Jul-15 22:33N 59°20' E 018°04'0 0.0
2016-Jul-15 21:33N 59°20' E 018°04'0 0.0
2016-Jul-15 20:33N 59°20' E 018°04'0 0.0
2016-Jul-15 19:33N 59°20' E 018°04'0 0.0
2016-Jul-15 18:33N 59°20' E 018°04'0 0.0
2016-Jul-15 17:33N 59°20' E 018°04'0 0.0
2016-Jul-15 09:33N 59°19' E 018°05'0 0.3
2016-Jul-15 08:33N 59°20' E 018°05'3 0.2
2016-Jul-14 15:27N 59°20' E 018°11'3 3.9
2016-Jul-14 14:33N 59°20' E 018°05'0 0.0
2016-Jul-14 06:33N 59°19' E 018°05'0 0.4
2016-Jul-14 05:33N 59°20' E 018°05'0 0.0
2016-Jul-14 04:33N 59°20' E 018°05'0 0.0
2016-Jul-14 03:30N 59°20' E 018°05'0 0.0
2016-Jul-14 02:33N 59°20' E 018°05'0 0.0
2016-Jul-14 01:28N 59°20' E 018°05'0 0.0
2016-Jul-14 00:33N 59°20' E 018°05'0 0.0
2016-Jul-13 23:34N 59°20' E 018°05'0 0.0
2016-Jul-13 22:33N 59°20' E 018°05'0 0.0
2016-Jul-13 21:33N 59°20' E 018°05'0 0.0
2016-Jul-13 20:33N 59°20' E 018°05'  

Dump ship's entire track history